createdAt,value
2022-10-03T00:00:29.194Z,97504.94
2022-10-03T00:03:23.528Z,97500.52
2022-10-03T00:05:56.318Z,97500.28
2022-10-03T00:08:56.492Z,97491.99
2022-10-03T00:11:57.812Z,97476.52
2022-10-03T00:14:40.815Z,97482.02
2022-10-03T00:17:18.598Z,97481.50
2022-10-03T00:20:00.025Z,97486.40
2022-10-03T00:22:44.435Z,97484.42
2022-10-03T00:26:28.055Z,97481.02
2022-10-03T00:29:07.753Z,97484.11
2022-10-03T00:31:57.554Z,97483.90
2022-10-03T00:34:31.487Z,97483.62
2022-10-03T00:37:11.028Z,97484.71
2022-10-03T00:39:55.009Z,97483.66
2022-10-03T00:42:52.449Z,97483.98
2022-10-03T00:45:32.668Z,97484.46
2022-10-03T00:48:38.114Z,97485.70
2022-10-03T00:51:36.928Z,97476.10
2022-10-03T00:54:18.587Z,97474.22
2022-10-03T00:57:05.441Z,97477.52
2022-10-03T00:59:49.871Z,97475.23
2022-10-03T01:02:40.661Z,97470.07
2022-10-03T01:05:12.647Z,97471.08
2022-10-03T01:07:59.619Z,97468.71
2022-10-03T01:10:40.163Z,97464.75
2022-10-03T01:13:26.668Z,97459.50
2022-10-03T01:16:19.113Z,97450.50
2022-10-03T01:19:07.355Z,97443.41
2022-10-03T01:21:48.288Z,97437.30
2022-10-03T01:24:52.980Z,97440.60
2022-10-03T01:28:01.069Z,97437.09
2022-10-03T01:30:48.675Z,97437.27
2022-10-03T01:33:27.785Z,97437.50
2022-10-03T01:36:33.906Z,97435.38
2022-10-03T01:39:21.081Z,97433.94
2022-10-03T01:42:13.173Z,97431.73
2022-10-03T01:44:43.803Z,97425.09
2022-10-03T01:47:37.671Z,97426.46
2022-10-03T01:50:14.084Z,97424.64
2022-10-03T01:53:07.254Z,97422.50
2022-10-03T01:55:58.279Z,97422.20
2022-10-03T01:58:47.837Z,97415.42
2022-10-03T02:01:29.434Z,97414.95
2022-10-03T02:04:04.545Z,97411.98
2022-10-03T02:07:10.244Z,97408.30
2022-10-03T02:09:38.397Z,97399.28
2022-10-03T02:12:15.918Z,97393.64
2022-10-03T02:15:02.387Z,97392.94
2022-10-03T02:17:56.732Z,97388.75
2022-10-03T02:20:35.300Z,97389.14
2022-10-03T02:23:23.549Z,97393.71
2022-10-03T02:26:14.882Z,97394.56
2022-10-03T02:29:04.702Z,97388.23
2022-10-03T02:32:09.819Z,97389.91
2022-10-03T02:35:12.348Z,97392.06
2022-10-03T02:37:57.898Z,97387.40
2022-10-03T02:41:03.370Z,97385.64
2022-10-03T02:43:53.106Z,97387.02
2022-10-03T02:46:40.168Z,97387.95
2022-10-03T02:49:26.347Z,97391.23
2022-10-03T02:52:15.251Z,97385.43
2022-10-03T02:54:52.344Z,97382.90
2022-10-03T02:58:18.283Z,97381.00
2022-10-03T03:01:06.926Z,97382.14
2022-10-03T03:04:19.855Z,97383.14
2022-10-03T03:07:08.100Z,97379.94
2022-10-03T03:10:11.101Z,97377.42
2022-10-03T03:12:55.529Z,97384.23
2022-10-03T03:15:57.298Z,97388.28
2022-10-03T03:18:44.461Z,97402.94
2022-10-03T03:21:47.303Z,97417.70
2022-10-03T03:24:33.620Z,97424.73
2022-10-03T03:27:04.404Z,97414.65
2022-10-03T03:30:21.633Z,97407.09
2022-10-03T03:32:56.410Z,97402.73
2022-10-03T03:35:33.980Z,97390.52
2022-10-03T03:38:28.231Z,97383.17
2022-10-03T03:41:14.662Z,97379.88
2022-10-03T03:44:12.428Z,97381.33
2022-10-03T03:46:58.149Z,97387.38
2022-10-03T03:49:42.604Z,97387.82
2022-10-03T03:52:21.915Z,97384.30
2022-10-03T03:55:17.304Z,97386.98
2022-10-03T03:57:48.292Z,97386.52
2022-10-03T04:00:23.037Z,97386.91
2022-10-03T04:03:00.021Z,97381.86
2022-10-03T04:05:55.917Z,97386.23
2022-10-03T04:09:01.397Z,97396.15
2022-10-03T04:11:29.275Z,97391.02
2022-10-03T04:14:07.165Z,97389.19
2022-10-03T04:17:19.355Z,97385.97
2022-10-03T04:20:31.523Z,97384.98
2022-10-03T04:23:08.443Z,97387.27
2022-10-03T04:25:54.819Z,97401.91
2022-10-03T04:28:44.550Z,97414.21
2022-10-03T04:31:24.256Z,97397.70
2022-10-03T04:34:19.665Z,97394.41
2022-10-03T04:37:49.107Z,97397.63
2022-10-03T04:40:44.280Z,97405.94
2022-10-03T04:43:35.023Z,97410.83
2022-10-03T04:46:31.069Z,97412.81
2022-10-03T04:49:17.185Z,97412.05
2022-10-03T04:52:23.768Z,97415.80
2022-10-03T04:54:57.443Z,97416.94
2022-10-03T04:57:45.468Z,97425.73
2022-10-03T05:00:31.426Z,97429.02
2022-10-03T05:03:12.656Z,97431.70
2022-10-03T05:05:43.982Z,97432.70
2022-10-03T05:08:24.334Z,97428.27
2022-10-03T05:11:18.969Z,97429.66
2022-10-03T05:14:12.644Z,97428.13
2022-10-03T05:16:55.385Z,97429.59
2022-10-03T05:19:47.333Z,97429.60
2022-10-03T05:22:44.492Z,97430.40
2022-10-03T05:25:41.887Z,97434.30
2022-10-03T05:28:54.317Z,97437.76
2022-10-03T05:31:45.046Z,97441.91
2022-10-03T05:34:29.761Z,97445.36
2022-10-03T05:37:29.817Z,97448.65
2022-10-03T05:40:02.724Z,97454.08
2022-10-03T05:42:55.814Z,97456.67
2022-10-03T05:45:32.779Z,97453.69
2022-10-03T05:48:28.645Z,97447.24
2022-10-03T05:51:17.703Z,97447.98
2022-10-03T05:53:58.481Z,97456.17
2022-10-03T05:56:43.642Z,97453.17
2022-10-03T05:59:44.575Z,97454.63
2022-10-03T06:02:33.055Z,97457.50
2022-10-03T06:05:23.105Z,97462.67
2022-10-03T06:08:12.559Z,97467.40
2022-10-03T06:11:19.997Z,97472.91
2022-10-03T06:14:13.727Z,97478.10
2022-10-03T06:16:41.529Z,97482.44
2022-10-03T06:19:25.695Z,97484.98
2022-10-03T06:22:12.368Z,97488.56
2022-10-03T06:24:59.696Z,97493.48
2022-10-03T06:27:58.445Z,97495.55
2022-10-03T06:31:04.547Z,97502.68
2022-10-03T06:33:58.123Z,97499.39
2022-10-03T06:36:44.863Z,97499.69
2022-10-03T06:39:40.561Z,97508.33
2022-10-03T06:42:35.744Z,97512.07
2022-10-03T06:45:16.640Z,97506.55
2022-10-03T06:48:01.072Z,97508.23
2022-10-03T06:50:42.852Z,97514.89
2022-10-03T06:53:38.386Z,97513.20
2022-10-03T06:56:06.152Z,97519.32
2022-10-03T06:59:05.604Z,97526.80
2022-10-03T07:02:04.767Z,97527.63
2022-10-03T07:04:48.913Z,97530.95
2022-10-03T07:07:35.044Z,97532.74
2022-10-03T07:10:18.823Z,97531.50
2022-10-03T07:12:56.212Z,97534.23
2022-10-03T07:16:08.835Z,97532.35
2022-10-03T07:18:39.523Z,97538.04
2022-10-03T07:22:00.845Z,97533.64
2022-10-03T07:25:12.906Z,97536.42
2022-10-03T07:27:50.874Z,97543.40
2022-10-03T07:30:24.115Z,97548.35
2022-10-03T07:32:59.030Z,97549.63
2022-10-03T07:36:11.768Z,97553.52
2022-10-03T07:39:01.804Z,97556.23
2022-10-03T07:41:56.002Z,97553.66
2022-10-03T07:44:53.464Z,97559.20
2022-10-03T07:48:03.702Z,97560.16
2022-10-03T07:51:16.729Z,97559.20
2022-10-03T07:53:50.520Z,97555.98
2022-10-03T07:56:57.843Z,97553.89
2022-10-03T07:59:48.039Z,97557.07
2022-10-03T08:02:41.257Z,97560.75
2022-10-03T08:05:11.695Z,97565.29
2022-10-03T08:08:02.550Z,97567.98
2022-10-03T08:11:08.452Z,97565.46
2022-10-03T08:13:54.952Z,97565.30
2022-10-03T08:16:27.243Z,97563.14
2022-10-03T08:18:58.496Z,97566.35
2022-10-03T08:21:39.379Z,97566.56
2022-10-03T08:24:49.593Z,97563.41
2022-10-03T08:27:45.113Z,97565.59
2022-10-03T08:30:18.751Z,97562.84
2022-10-03T08:33:31.586Z,97563.60
2022-10-03T08:36:37.818Z,97562.67
2022-10-03T08:39:30.210Z,97561.38
2022-10-03T08:42:37.283Z,97566.51
2022-10-03T08:45:17.594Z,97559.89
2022-10-03T08:48:25.354Z,97563.52
2022-10-03T08:51:10.749Z,97565.98
2022-10-03T08:53:48.265Z,97568.36
2022-10-03T08:56:42.033Z,97566.33
2022-10-03T08:59:47.121Z,97572.86
2022-10-03T09:02:36.173Z,97573.58
2022-10-03T09:05:45.282Z,97574.55
2022-10-03T09:08:49.835Z,97569.77
2022-10-03T09:11:39.824Z,97571.42
2022-10-03T09:14:30.331Z,97575.73
2022-10-03T09:17:06.383Z,97576.61
2022-10-03T09:19:52.759Z,97578.06
2022-10-03T09:22:45.782Z,97575.44
2022-10-03T09:25:35.193Z,97576.52
2022-10-03T09:28:03.103Z,97576.95
2022-10-03T09:30:43.097Z,97579.61
2022-10-03T09:33:19.487Z,97577.44
2022-10-03T09:36:01.813Z,97577.05
2022-10-03T09:38:45.008Z,97579.16
2022-10-03T09:41:44.168Z,97576.61
2022-10-03T09:44:34.483Z,97577.95
2022-10-03T09:47:24.287Z,97575.35
2022-10-03T09:50:24.119Z,97567.94
2022-10-03T09:53:17.546Z,97565.77
2022-10-03T09:56:07.419Z,97565.33
2022-10-03T09:58:36.077Z,97560.57
2022-10-03T10:01:09.871Z,97557.36
2022-10-03T10:04:00.675Z,97552.05
2022-10-03T10:07:17.945Z,97552.52
2022-10-03T10:10:24.259Z,97549.67
2022-10-03T10:13:20.331Z,97554.40
2022-10-03T10:16:27.040Z,97556.33
2022-10-03T10:19:13.436Z,97553.56
2022-10-03T10:22:18.647Z,97555.41
2022-10-03T10:25:26.404Z,97554.33
2022-10-03T10:28:18.385Z,97549.33
2022-10-03T10:31:20.285Z,97542.89
2022-10-03T10:34:15.812Z,97541.39
2022-10-03T10:37:19.345Z,97545.08
2022-10-03T10:40:28.056Z,97541.27
2022-10-03T10:43:29.790Z,97539.64
2022-10-03T10:46:35.179Z,97538.41
2022-10-03T10:49:46.098Z,97533.77
2022-10-03T10:52:48.063Z,97530.97
2022-10-03T10:55:34.991Z,97532.12
2022-10-03T10:58:50.365Z,97532.95
2022-10-03T11:02:03.821Z,97525.95
2022-10-03T11:05:07.171Z,97526.23
2022-10-03T11:07:35.661Z,97526.67
2022-10-03T11:10:26.050Z,97526.67
2022-10-03T11:13:27.606Z,97523.67
2022-10-03T11:16:06.411Z,97526.61
2022-10-03T11:19:02.003Z,97525.20
2022-10-03T11:21:54.503Z,97522.92
2022-10-03T11:25:03.623Z,97518.11
2022-10-03T11:28:18.831Z,97513.80
2022-10-03T11:31:18.306Z,97513.94
2022-10-03T11:34:08.169Z,97517.41
2022-10-03T11:36:54.035Z,97513.02
2022-10-03T11:39:48.143Z,97506.61
2022-10-03T11:42:28.633Z,97506.55
2022-10-03T11:45:04.367Z,97504.13
2022-10-03T11:47:44.436Z,97499.85
2022-10-03T11:50:54.731Z,97501.19
2022-10-03T11:53:34.761Z,97499.64
2022-10-03T11:56:24.717Z,97496.43
2022-10-03T11:59:09.492Z,97490.17
2022-10-03T12:02:00.936Z,97491.11
2022-10-03T12:04:55.906Z,97491.34
2022-10-03T12:08:04.665Z,97487.92
2022-10-03T12:10:35.597Z,97480.29
2022-10-03T12:13:09.471Z,97478.77
2022-10-03T12:15:40.436Z,97477.72
2022-10-03T12:18:30.445Z,97476.23
2022-10-03T12:21:24.674Z,97484.18
2022-10-03T12:24:12.548Z,97495.52
2022-10-03T12:27:07.093Z,97516.63
2022-10-03T12:29:48.846Z,97517.23
2022-10-03T12:32:48.957Z,97510.89
2022-10-03T12:35:31.093Z,97498.93
2022-10-03T12:38:28.563Z,97493.25
2022-10-03T12:41:18.612Z,97485.79
2022-10-03T12:44:05.318Z,97488.70
2022-10-03T12:46:45.565Z,97490.92
2022-10-03T12:49:28.385Z,97493.20
2022-10-03T12:52:06.072Z,97497.23
2022-10-03T12:54:47.236Z,97497.83
2022-10-03T12:57:55.194Z,97507.96
2022-10-03T13:00:45.834Z,97513.04
2022-10-03T13:03:38.710Z,97511.08
2022-10-03T13:06:33.910Z,97512.89
2022-10-03T13:09:45.820Z,97492.40
2022-10-03T13:12:35.254Z,97488.52
2022-10-03T13:15:47.117Z,97490.60
2022-10-03T13:18:42.040Z,97499.76
2022-10-03T13:21:44.905Z,97501.79
2022-10-03T13:25:00.579Z,97501.19
2022-10-03T13:27:48.786Z,97499.60
2022-10-03T13:30:24.372Z,97510.26
2022-10-03T13:33:02.038Z,97515.96
2022-10-03T13:35:55.560Z,97520.12
2022-10-03T13:38:28.671Z,97535.23
2022-10-03T13:41:12.733Z,97544.06
2022-10-03T13:43:54.219Z,97540.67
2022-10-03T13:46:40.740Z,97525.35
2022-10-03T13:49:22.662Z,97515.90
2022-10-03T14:20:25.132Z,97504.58
2022-10-03T14:23:09.783Z,97496.96
2022-10-03T14:25:45.977Z,97492.41
2022-10-03T14:28:26.799Z,97495.59
2022-10-03T14:31:05.888Z,97488.77
2022-10-03T14:33:47.195Z,97491.39
2022-10-03T14:36:23.260Z,97495.40
2022-10-03T14:39:15.446Z,97501.07
2022-10-03T14:41:52.870Z,97498.23
2022-10-03T14:44:47.949Z,97496.16
2022-10-03T14:47:18.889Z,97494.45
2022-10-03T14:49:57.868Z,97492.10
2022-10-03T14:52:36.962Z,97487.23
2022-10-03T14:55:22.822Z,97486.30
2022-10-03T14:58:10.835Z,97488.78
2022-10-03T15:00:47.729Z,97490.45
2022-10-03T15:03:15.701Z,97494.61
2022-10-03T15:06:04.932Z,97495.23
2022-10-03T15:08:47.425Z,97500.77
2022-10-03T15:11:23.968Z,97509.21
2022-10-03T15:13:57.123Z,97514.50
2022-10-03T15:16:26.847Z,97516.38
2022-10-03T15:19:01.731Z,97521.39
2022-10-03T15:21:31.962Z,97521.41
2022-10-03T15:24:05.052Z,97519.62
2022-10-03T15:26:36.456Z,97518.92
2022-10-03T15:29:07.430Z,97515.15
2022-10-03T15:31:46.559Z,97521.27
2022-10-03T15:34:14.711Z,97531.33
2022-10-03T15:36:49.125Z,97532.68
2022-10-03T15:39:36.115Z,97532.73
2022-10-03T15:42:10.055Z,97535.46
2022-10-03T15:44:58.568Z,97537.73
2022-10-03T15:47:29.180Z,97539.85
2022-10-03T15:50:03.213Z,97548.86
2022-10-03T15:52:40.171Z,97550.35
2022-10-03T15:55:34.849Z,97553.84
2022-10-03T15:58:16.738Z,97563.07
2022-10-03T16:00:53.263Z,97566.61
2022-10-03T16:03:31.135Z,97565.64
2022-10-03T16:06:19.353Z,97562.82
2022-10-03T16:09:17.706Z,97582.69
2022-10-03T16:12:12.476Z,97652.89
2022-10-03T16:14:51.589Z,97671.67
2022-10-03T16:17:32.431Z,97673.65
2022-10-03T16:20:12.789Z,97674.79
2022-10-03T16:22:50.395Z,97670.71
2022-10-03T16:25:23.502Z,97671.39
2022-10-03T16:28:03.775Z,97674.78
2022-10-03T16:30:43.887Z,97673.66
2022-10-03T16:33:24.144Z,97671.63
2022-10-03T16:35:56.227Z,97683.14
2022-10-03T16:38:32.330Z,97685.00
2022-10-03T16:41:14.222Z,97682.52
2022-10-03T16:43:56.090Z,97685.29
2022-10-03T16:46:26.054Z,97684.48
2022-10-03T16:49:16.076Z,97681.98
2022-10-03T16:51:47.125Z,97674.83
2022-10-03T16:54:18.538Z,97666.79
2022-10-03T16:56:55.116Z,97669.89
2022-10-03T16:59:25.845Z,97691.48
2022-10-03T17:02:06.516Z,97688.35
2022-10-03T17:04:41.119Z,97682.52
2022-10-03T17:07:18.830Z,97681.51
2022-10-03T17:09:50.479Z,97681.17
2022-10-03T17:12:25.746Z,97689.25
2022-10-03T17:14:57.083Z,97695.58
2022-10-03T17:17:30.129Z,97700.61
2022-10-03T17:20:07.124Z,97700.80
2022-10-03T17:22:42.606Z,97701.41
2022-10-03T17:25:32.374Z,97697.24
2022-10-03T17:28:06.642Z,97694.01
2022-10-03T17:30:49.612Z,97695.59
2022-10-03T17:33:30.984Z,97694.73
2022-10-03T17:36:34.209Z,97697.87
2022-10-03T17:39:04.944Z,97706.35
2022-10-03T17:42:09.715Z,97710.31
2022-10-03T17:45:12.338Z,97704.74
2022-10-03T17:47:52.593Z,97706.65
2022-10-03T17:50:40.036Z,97713.90
2022-10-03T17:53:19.855Z,97723.60
2022-10-03T17:55:53.117Z,97728.41
2022-10-03T17:58:25.588Z,97729.64
2022-10-03T18:01:10.724Z,97731.02
2022-10-03T18:03:58.152Z,97726.27
2022-10-03T18:06:29.004Z,97728.42
2022-10-03T18:08:57.692Z,97721.08
2022-10-03T18:11:29.782Z,97705.80
2022-10-03T18:14:13.655Z,97702.81
2022-10-03T18:17:09.523Z,97712.27
2022-10-03T18:19:54.065Z,97717.90
2022-10-03T18:22:36.070Z,97719.19
2022-10-03T18:25:34.220Z,97714.14
2022-10-03T18:28:24.885Z,97719.32
2022-10-03T18:30:59.000Z,97722.98
2022-10-03T18:33:33.464Z,97722.38
2022-10-03T18:36:19.200Z,97724.07
2022-10-03T18:38:50.102Z,97721.29
2022-10-03T18:41:19.460Z,97719.67
2022-10-03T18:43:58.851Z,97720.30
2022-10-03T18:46:40.392Z,97718.63
2022-10-03T18:49:34.933Z,97722.65
2022-10-03T18:52:21.216Z,97722.39
2022-10-03T18:54:55.333Z,97724.05
2022-10-03T18:57:47.081Z,97731.67
2022-10-03T19:00:19.433Z,97737.39
2022-10-03T19:02:55.141Z,97732.41
2022-10-03T19:05:41.923Z,97730.20
2022-10-03T19:08:26.211Z,97729.41
2022-10-03T19:11:18.809Z,97724.96
2022-10-03T19:14:09.842Z,97725.33
2022-10-03T19:16:57.121Z,97725.61
2022-10-03T19:19:55.275Z,97726.36
2022-10-03T19:22:32.251Z,97725.52
2022-10-03T19:25:04.899Z,97727.27
2022-10-03T19:27:42.134Z,97727.70
2022-10-03T19:30:17.718Z,97729.29
2022-10-03T19:32:49.052Z,97727.43
2022-10-03T19:35:22.038Z,97727.95
2022-10-03T19:37:53.902Z,97728.98
2022-10-03T19:40:37.063Z,97729.41
2022-10-03T19:43:44.677Z,97731.67
2022-10-03T19:46:15.364Z,97727.73
2022-10-03T19:48:58.852Z,97734.06
2022-10-03T19:51:28.130Z,97735.33
2022-10-03T19:53:58.142Z,97729.89
2022-10-03T19:56:33.281Z,97730.23
2022-10-03T19:59:13.092Z,97729.60
2022-10-03T20:01:46.205Z,97732.85
2022-10-03T20:04:18.653Z,97733.74
2022-10-03T20:06:50.170Z,97738.06
2022-10-03T20:09:29.154Z,97738.65
2022-10-03T20:12:02.968Z,97735.59
2022-10-03T20:14:41.314Z,97733.37
2022-10-03T20:17:17.635Z,97731.14
2022-10-03T20:19:57.508Z,97734.46
2022-10-03T20:22:28.781Z,97733.98
2022-10-03T20:24:59.577Z,97738.08
2022-10-03T20:27:49.291Z,97742.96
2022-10-03T20:30:49.769Z,97740.89
2022-10-03T20:33:30.797Z,97742.10
2022-10-03T20:36:11.901Z,97747.36
2022-10-03T20:38:49.054Z,97745.65
2022-10-03T20:41:33.864Z,97742.10
2022-10-03T20:44:43.702Z,97738.03
2022-10-03T20:47:36.107Z,97736.25
2022-10-03T20:50:27.967Z,97741.52
2022-10-03T20:53:02.437Z,97744.18
2022-10-03T20:55:59.292Z,97746.00
2022-10-03T20:58:38.260Z,97746.24
2022-10-03T21:01:15.852Z,97749.23
2022-10-03T21:03:51.778Z,97748.94
2022-10-03T21:06:30.389Z,97752.38
2022-10-03T21:09:01.391Z,97752.83
2022-10-03T21:11:32.696Z,97758.45
2022-10-03T21:14:23.716Z,97759.12
2022-10-03T21:16:53.743Z,97762.55
2022-10-03T21:19:21.692Z,97764.82
2022-10-03T21:21:58.039Z,97761.22
2022-10-03T21:24:42.973Z,97761.36
2022-10-03T21:27:15.713Z,97756.71
2022-10-03T21:30:04.063Z,97763.98
2022-10-03T21:33:09.882Z,97763.77
2022-10-03T21:35:41.193Z,97762.48
2022-10-03T21:38:21.843Z,97760.98
2022-10-03T21:40:58.863Z,97762.70
2022-10-03T21:43:48.481Z,97766.91
2022-10-03T21:46:37.909Z,97773.20
2022-10-03T21:49:17.844Z,97775.95
2022-10-03T21:52:05.937Z,97781.73
2022-10-03T21:55:02.916Z,97781.45
2022-10-03T21:57:48.699Z,97780.41
2022-10-03T22:00:26.434Z,97783.82
2022-10-03T22:03:21.026Z,97780.26
2022-10-03T22:06:17.195Z,97778.83
2022-10-03T22:08:47.747Z,97781.17
2022-10-03T22:11:35.894Z,97778.30
2022-10-03T22:14:09.353Z,97777.91
2022-10-03T22:17:02.558Z,97780.50
2022-10-03T22:19:49.953Z,97777.86
2022-10-03T22:22:36.146Z,97780.80
2022-10-03T22:25:32.629Z,97782.23
2022-10-03T22:28:06.935Z,97785.69
2022-10-03T22:30:41.376Z,97784.11
2022-10-03T22:33:15.392Z,97786.11
2022-10-03T22:36:02.026Z,97786.26
2022-10-03T22:38:32.895Z,97790.73
2022-10-03T22:41:09.432Z,97795.21
2022-10-03T22:43:38.330Z,97796.72
2022-10-03T22:46:08.155Z,97797.61
2022-10-03T22:48:48.532Z,97800.46
2022-10-03T22:51:20.285Z,97796.45
2022-10-03T22:53:53.897Z,97792.04
2022-10-03T22:56:48.192Z,97793.85
2022-10-03T22:59:23.850Z,97794.67
2022-10-03T23:01:55.067Z,97792.29
2022-10-03T23:04:28.844Z,97790.38
2022-10-03T23:07:24.463Z,97789.64
2022-10-03T23:10:20.259Z,97792.89
2022-10-03T23:12:56.712Z,97798.79
2022-10-03T23:15:26.510Z,97798.67
2022-10-03T23:18:03.304Z,97802.21
2022-10-03T23:21:06.754Z,97802.67
2022-10-03T23:23:38.437Z,97802.98
2022-10-03T23:26:24.658Z,97806.91
2022-10-03T23:29:11.269Z,97809.04
2022-10-03T23:31:48.656Z,97813.99
2022-10-03T23:34:37.405Z,97820.08
2022-10-03T23:37:15.107Z,97824.02
2022-10-03T23:40:06.815Z,97823.23
2022-10-03T23:42:44.516Z,97828.23
2022-10-03T23:45:19.168Z,97828.02
2022-10-03T23:47:53.206Z,97826.36
2022-10-03T23:50:34.421Z,97830.36
2022-10-03T23:53:02.563Z,97834.19
2022-10-03T23:55:36.174Z,97834.89
2022-10-03T23:58:18.567Z,97835.31
